createdAt,value
2023-01-21T01:22:58.329Z,88.68
2023-01-21T01:25:27.505Z,88.46
2023-01-21T01:27:56.483Z,88.11
2023-01-21T01:30:25.449Z,88.07
2023-01-21T01:32:55.094Z,87.82
2023-01-21T01:35:23.878Z,87.67
2023-01-21T01:37:53.428Z,87.49
2023-01-21T01:40:22.190Z,87.57
2023-01-21T01:42:51.099Z,87.72
2023-01-21T01:45:22.703Z,87.83
2023-01-21T01:47:59.837Z,88.04
2023-01-21T01:50:33.588Z,87.98
2023-01-21T01:53:02.627Z,87.91
2023-01-21T01:55:34.048Z,88.03
2023-01-21T01:58:07.368Z,87.90
2023-01-21T02:00:36.465Z,87.68
2023-01-21T02:03:24.173Z,87.27
2023-01-21T02:05:53.182Z,87.34
2023-01-21T02:08:24.281Z,87.23
2023-01-21T02:10:55.041Z,87.20
2023-01-21T02:13:29.193Z,87.25
2023-01-21T02:16:41.955Z,87.24
2023-01-21T02:19:38.743Z,87.18
2023-01-21T02:22:27.584Z,87.04
2023-01-21T02:25:21.498Z,87.11
2023-01-21T02:28:24.102Z,87.18
2023-01-21T02:31:17.120Z,87.32
2023-01-21T02:34:15.667Z,87.29
2023-01-21T02:36:55.963Z,87.30
2023-01-21T02:40:10.281Z,87.32
2023-01-21T02:42:49.465Z,87.10
2023-01-21T02:45:45.202Z,86.92
2023-01-21T02:48:31.982Z,86.98
2023-01-21T02:51:02.289Z,86.93
2023-01-21T02:53:36.153Z,86.96
2023-01-21T02:56:25.034Z,87.02
2023-01-21T02:58:59.263Z,86.98
2023-01-21T03:01:44.002Z,86.75
2023-01-21T03:04:33.778Z,86.75
2023-01-21T03:07:17.520Z,86.76
2023-01-21T03:09:46.380Z,86.72
2023-01-21T03:12:23.796Z,86.89
2023-01-21T03:15:23.420Z,86.80
2023-01-21T03:18:01.696Z,86.73
2023-01-21T03:20:41.311Z,86.80
2023-01-21T03:23:24.677Z,86.80
2023-01-21T03:25:55.136Z,86.80
2023-01-21T03:28:27.186Z,86.73
2023-01-21T03:31:04.545Z,86.66
2023-01-21T03:33:36.178Z,86.68
2023-01-21T03:36:13.211Z,86.68
2023-01-21T03:38:47.646Z,86.67
2023-01-21T03:41:21.447Z,86.45
2023-01-21T03:43:50.931Z,86.56
2023-01-21T03:46:34.257Z,86.64
2023-01-21T03:49:24.453Z,86.54
2023-01-21T03:51:59.808Z,86.74
2023-01-21T03:54:29.102Z,86.71
2023-01-21T03:56:59.967Z,86.68
2023-01-21T03:59:29.242Z,86.63
2023-01-21T04:01:59.011Z,86.56
2023-01-21T04:04:27.563Z,86.18
2023-01-21T04:06:57.821Z,86.03
2023-01-21T04:09:26.698Z,85.89
2023-01-21T04:11:55.670Z,85.76
2023-01-21T04:14:25.054Z,85.70
2023-01-21T04:16:55.625Z,85.78
2023-01-21T04:19:24.818Z,85.87
2023-01-21T04:21:53.669Z,85.85
2023-01-21T04:24:23.431Z,85.77
2023-01-21T04:26:52.582Z,85.69
2023-01-21T04:29:22.526Z,85.41
2023-01-21T04:31:52.170Z,85.24
2023-01-21T04:34:21.553Z,85.38
2023-01-21T04:36:50.391Z,85.32
2023-01-21T04:39:19.949Z,85.32
2023-01-21T04:41:49.042Z,85.08
2023-01-21T04:44:17.695Z,85.11
2023-01-21T04:46:47.257Z,84.99
2023-01-21T04:49:15.913Z,84.99
2023-01-21T04:51:46.208Z,84.99
2023-01-21T04:54:15.109Z,85.08
2023-01-21T04:56:45.538Z,85.08
2023-01-21T04:59:15.974Z,85.01
2023-01-21T05:01:45.283Z,85.01
2023-01-21T05:04:14.604Z,85.12
2023-01-21T05:06:43.949Z,85.19
2023-01-21T05:09:13.578Z,84.94
2023-01-21T05:11:43.209Z,85.10
2023-01-21T05:14:12.882Z,84.94
2023-01-21T05:16:41.545Z,84.88
2023-01-21T05:19:10.817Z,84.84
2023-01-21T05:21:41.893Z,84.90
2023-01-21T05:24:10.942Z,84.97
2023-01-21T05:26:41.171Z,84.99
2023-01-21T05:29:11.168Z,85.01
2023-01-21T05:31:40.278Z,84.92
2023-01-21T05:34:09.913Z,84.93
2023-01-21T05:36:39.579Z,84.72
2023-01-21T05:39:09.871Z,84.56
2023-01-21T05:41:39.210Z,84.44
2023-01-21T05:44:09.985Z,84.57
2023-01-21T05:46:38.866Z,84.60
2023-01-21T05:49:07.830Z,84.57
2023-01-21T05:51:37.525Z,84.50
2023-01-21T05:54:06.581Z,84.30
2023-01-21T05:56:35.577Z,84.44
2023-01-21T05:59:05.196Z,84.23
2023-01-21T06:01:34.502Z,84.27
2023-01-21T06:04:05.170Z,84.37
2023-01-21T06:06:35.613Z,84.36
2023-01-21T06:09:05.151Z,84.12
2023-01-21T06:11:34.235Z,83.74
2023-01-21T06:14:04.840Z,83.88
2023-01-21T06:16:34.347Z,83.96
2023-01-21T06:19:03.936Z,84.05
2023-01-21T06:21:34.720Z,84.08
2023-01-21T06:24:04.431Z,84.37
2023-01-21T06:26:36.483Z,84.34
2023-01-21T06:29:05.523Z,84.35
2023-01-21T06:31:34.787Z,84.34
2023-01-21T06:34:04.724Z,84.36
2023-01-21T06:36:34.333Z,84.39
2023-01-21T06:39:04.027Z,84.44
2023-01-21T06:41:33.639Z,84.47
2023-01-21T06:44:03.686Z,84.43
2023-01-21T06:46:34.610Z,84.32
2023-01-21T06:49:04.370Z,84.13
2023-01-21T06:51:32.981Z,84.16
2023-01-21T06:54:03.281Z,84.18
2023-01-21T06:56:32.129Z,84.11
2023-01-21T06:59:03.302Z,84.34
2023-01-21T07:01:33.915Z,84.35
2023-01-21T07:04:03.491Z,84.24
2023-01-21T07:06:32.484Z,83.84
2023-01-21T07:09:03.855Z,83.87
2023-01-21T07:11:33.666Z,83.77
2023-01-21T07:14:03.032Z,83.67
2023-01-21T07:16:33.154Z,83.83
2023-01-21T07:19:02.176Z,84.09
2023-01-21T07:21:31.366Z,84.26
2023-01-21T07:24:00.551Z,84.31
2023-01-21T07:26:30.928Z,84.42
2023-01-21T07:29:01.808Z,84.34
2023-01-21T07:31:31.000Z,84.18
2023-01-21T07:34:00.439Z,83.98
2023-01-21T07:36:30.657Z,83.88
2023-01-21T07:38:59.703Z,83.94
2023-01-21T07:41:28.701Z,83.98
2023-01-21T07:43:58.066Z,84.04
2023-01-21T07:46:28.651Z,84.08
2023-01-21T07:48:58.522Z,83.99
2023-01-21T07:51:27.497Z,84.12
2023-01-21T07:53:58.824Z,83.95
2023-01-21T07:56:28.740Z,83.85
2023-01-21T07:58:58.071Z,83.76
2023-01-21T08:01:28.631Z,83.98
2023-01-21T08:03:59.852Z,84.11
2023-01-21T08:06:29.028Z,83.98
2023-01-21T08:08:59.187Z,83.94
2023-01-21T08:11:28.138Z,83.83
2023-01-21T08:13:57.228Z,83.83
2023-01-21T08:16:27.440Z,83.86
2023-01-21T08:18:56.450Z,83.93
2023-01-21T08:21:25.995Z,84.00
2023-01-21T08:23:56.330Z,84.04
2023-01-21T08:26:26.305Z,83.88
2023-01-21T08:28:55.708Z,83.85
2023-01-21T08:31:24.699Z,84.02
2023-01-21T08:33:54.367Z,84.07
2023-01-21T08:36:24.019Z,84.06
2023-01-21T08:39:01.714Z,83.97
2023-01-21T08:41:31.564Z,83.84
2023-01-21T08:44:02.455Z,83.73
2023-01-21T08:46:32.091Z,83.73
2023-01-21T08:49:01.487Z,83.72
2023-01-21T08:51:33.577Z,83.75
2023-01-21T08:54:10.434Z,83.56
2023-01-21T08:56:40.135Z,83.61
2023-01-21T08:59:09.557Z,83.89
2023-01-21T09:01:40.968Z,83.63
2023-01-21T09:04:10.216Z,83.65
2023-01-21T09:06:41.170Z,83.66
2023-01-21T09:09:11.341Z,83.78
2023-01-21T09:11:41.270Z,84.01
2023-01-21T09:14:10.061Z,83.80
2023-01-21T09:16:40.333Z,83.77
2023-01-21T09:19:09.911Z,83.73
2023-01-21T09:21:40.802Z,83.66
2023-01-21T09:24:10.235Z,83.62
2023-01-21T09:26:43.748Z,83.45
2023-01-21T09:29:13.160Z,83.57
2023-01-21T09:31:42.545Z,83.62
2023-01-21T09:34:11.787Z,83.84
2023-01-21T09:36:46.206Z,83.98
2023-01-21T09:39:15.901Z,84.15
2023-01-21T09:41:51.679Z,84.17
2023-01-21T09:44:35.688Z,84.15
2023-01-21T09:47:24.789Z,84.31
2023-01-21T09:50:04.821Z,85.14
2023-01-21T09:52:45.821Z,85.29
2023-01-21T09:55:24.763Z,85.20
2023-01-21T09:58:17.286Z,85.01
2023-01-21T10:01:07.677Z,84.87
2023-01-21T10:04:07.710Z,84.71
2023-01-21T10:06:50.821Z,84.64
2023-01-21T10:09:33.487Z,84.67
2023-01-21T10:15:40.639Z,84.25
2023-01-21T10:18:25.224Z,84.28
2023-01-21T10:21:18.219Z,84.09
2023-01-21T10:23:51.733Z,83.85
2023-01-21T10:26:21.987Z,83.99
2023-01-21T10:28:55.476Z,84.25
2023-01-21T10:31:27.155Z,84.45
2023-01-21T10:33:57.227Z,84.37
2023-01-21T10:36:51.240Z,84.90
2023-01-21T10:40:08.468Z,85.20
2023-01-21T10:43:04.836Z,85.65
2023-01-21T10:45:42.401Z,85.96
2023-01-21T10:48:38.577Z,86.14
2023-01-21T10:51:25.553Z,86.27
2023-01-21T10:54:09.225Z,86.42
2023-01-21T10:57:04.715Z,86.65
2023-01-21T10:59:35.710Z,87.15
2023-01-21T11:02:15.830Z,87.33
2023-01-21T11:04:46.417Z,86.56
2023-01-21T11:07:18.424Z,86.35
2023-01-21T11:09:48.188Z,86.43
2023-01-21T11:12:20.134Z,86.09
2023-01-21T11:15:02.321Z,85.85
2023-01-21T11:17:37.365Z,86.00
2023-01-21T11:20:36.832Z,86.14
2023-01-21T11:23:07.253Z,86.31
2023-01-21T11:25:42.108Z,86.44
2023-01-21T11:28:26.456Z,86.65
2023-01-21T11:31:06.453Z,86.63
2023-01-21T11:33:35.635Z,86.77
2023-01-21T11:36:17.837Z,87.00
2023-01-21T11:38:50.672Z,87.38
2023-01-21T11:41:23.347Z,87.22
2023-01-21T11:43:54.598Z,87.08
2023-01-21T11:46:37.102Z,87.36
2023-01-21T11:49:17.717Z,87.15
2023-01-21T11:51:47.103Z,87.22
2023-01-21T11:54:21.692Z,87.33
2023-01-21T11:56:59.403Z,87.34
2023-01-21T11:59:43.178Z,87.62
2023-01-21T12:02:29.277Z,87.73
2023-01-21T12:05:08.583Z,87.70
2023-01-21T12:07:42.713Z,87.92
2023-01-21T12:10:24.416Z,88.11
2023-01-21T12:13:01.831Z,87.82
2023-01-21T12:16:08.274Z,87.72
2023-01-21T12:19:04.384Z,88.18
2023-01-21T12:21:50.589Z,88.15
2023-01-21T12:24:44.150Z,88.30
2023-01-21T12:27:37.988Z,88.47
2023-01-21T12:30:27.383Z,88.56
2023-01-21T12:33:07.096Z,88.90
2023-01-21T12:35:45.449Z,88.67
2023-01-21T12:38:32.994Z,88.86
2023-01-21T12:41:13.338Z,88.96
2023-01-21T12:43:48.059Z,88.85
2023-01-21T12:46:34.776Z,88.94
2023-01-21T12:49:18.302Z,89.10
2023-01-21T12:51:50.283Z,89.23
2023-01-21T12:54:37.518Z,89.23
2023-01-21T12:57:41.397Z,89.50
2023-01-21T13:00:17.983Z,89.58
2023-01-21T13:03:12.917Z,89.88
2023-01-21T13:06:10.089Z,89.95
2023-01-21T13:09:02.562Z,90.06
2023-01-21T13:11:44.316Z,90.63
2023-01-21T13:14:21.353Z,91.12
2023-01-21T13:17:03.256Z,91.17
2023-01-21T13:19:33.865Z,91.08
2023-01-21T13:22:19.387Z,91.20
2023-01-21T13:25:30.896Z,91.23
2023-01-21T13:28:34.611Z,91.59
2023-01-21T13:34:40.512Z,92.25
2023-01-21T13:37:39.434Z,92.59
2023-01-21T13:40:19.855Z,92.63
2023-01-21T13:43:09.521Z,93.64
2023-01-21T13:46:06.669Z,93.61
2023-01-21T13:49:13.021Z,93.34
2023-01-21T13:52:00.084Z,93.35
2023-01-21T13:55:01.797Z,93.21
2023-01-21T13:57:51.182Z,93.22
2023-01-21T14:00:37.932Z,93.47
2023-01-21T14:03:15.560Z,93.55
2023-01-21T14:05:58.309Z,93.78
2023-01-21T14:08:49.980Z,93.79
2023-01-21T14:11:43.171Z,93.99
2023-01-21T14:14:27.780Z,94.00
2023-01-21T14:17:21.638Z,94.28
2023-01-21T14:20:05.739Z,94.41
2023-01-21T14:22:58.805Z,94.52
2023-01-21T14:25:44.541Z,94.65
2023-01-21T14:28:31.971Z,94.81
2023-01-21T14:31:15.373Z,95.01
2023-01-21T14:34:10.991Z,94.94
2023-01-21T14:37:04.559Z,94.89
2023-01-21T14:39:59.770Z,94.98
2023-01-21T14:42:47.488Z,95.09
2023-01-21T14:45:21.486Z,95.05
2023-01-21T14:47:53.685Z,95.12
2023-01-21T14:50:52.739Z,95.48
2023-01-21T14:53:26.081Z,95.80
2023-01-21T14:56:19.803Z,95.81
2023-01-21T14:58:56.742Z,95.76
2023-01-21T15:01:44.451Z,95.79
2023-01-21T15:04:26.311Z,95.67
2023-01-21T15:07:09.347Z,95.74
2023-01-21T15:09:55.224Z,95.87
2023-01-21T15:12:28.741Z,96.04
2023-01-21T15:15:15.974Z,96.05
2023-01-21T15:18:05.658Z,96.11
2023-01-21T15:20:56.526Z,96.18
2023-01-21T15:23:36.513Z,96.30
2023-01-21T15:26:16.768Z,96.34
2023-01-21T15:28:55.455Z,96.35
2023-01-21T15:31:29.980Z,96.33
2023-01-21T15:34:01.779Z,96.49
2023-01-21T15:36:40.150Z,96.55
2023-01-21T15:39:18.833Z,96.53
2023-01-21T15:42:11.560Z,96.65
2023-01-21T15:45:02.768Z,96.66
2023-01-21T15:47:41.189Z,96.58
2023-01-21T15:50:46.467Z,96.83
2023-01-21T15:53:33.010Z,96.88
2023-01-21T15:56:25.760Z,96.97
2023-01-21T15:59:31.967Z,97.10
2023-01-21T16:02:19.640Z,97.20
2023-01-21T16:05:20.200Z,97.21
2023-01-21T16:08:26.687Z,97.23
2023-01-21T16:11:26.788Z,97.29
2023-01-21T16:14:26.003Z,97.32
2023-01-21T16:17:10.098Z,97.49
2023-01-21T16:19:45.273Z,97.68
2023-01-21T16:22:19.280Z,97.66
2023-01-21T16:24:52.742Z,97.62
2023-01-21T16:27:26.021Z,97.70
2023-01-21T16:30:05.061Z,97.80
2023-01-21T16:32:36.703Z,97.78
2023-01-21T16:35:06.455Z,97.94
2023-01-21T16:37:36.663Z,97.92
2023-01-21T16:40:13.910Z,97.95
2023-01-21T16:42:44.251Z,98.04
2023-01-21T16:45:22.465Z,98.24
2023-01-21T16:47:59.332Z,98.29
2023-01-21T16:50:31.108Z,98.40
2023-01-21T16:53:01.006Z,98.43
2023-01-21T16:55:31.224Z,98.42
2023-01-21T16:58:00.880Z,98.37
2023-01-21T17:00:31.775Z,98.51
2023-01-21T17:03:03.810Z,98.63
2023-01-21T17:05:35.100Z,98.63
2023-01-21T17:08:05.102Z,98.63
2023-01-21T17:10:39.362Z,98.73
2023-01-21T17:13:15.690Z,98.75
2023-01-21T17:15:54.553Z,98.78
2023-01-21T17:18:40.575Z,98.79
2023-01-21T17:21:19.601Z,98.89
2023-01-21T17:23:53.375Z,98.94
2023-01-21T17:26:47.450Z,98.90
2023-01-21T17:29:29.248Z,98.90
2023-01-21T17:32:04.380Z,98.89
2023-01-21T17:34:37.378Z,98.88
2023-01-21T17:37:29.023Z,98.87
2023-01-21T17:40:01.278Z,98.91
2023-01-21T17:42:32.643Z,98.88
2023-01-21T17:45:05.125Z,98.93
2023-01-21T17:47:56.815Z,98.88
2023-01-21T17:50:19.081Z,98.94
2023-01-21T17:53:01.863Z,98.99
2023-01-21T17:55:40.415Z,98.95
2023-01-21T17:58:48.879Z,99.07
2023-01-21T18:01:19.668Z,99.15
2023-01-21T18:03:49.324Z,99.21
2023-01-21T18:06:22.964Z,99.29
2023-01-21T18:08:54.179Z,99.25
2023-01-21T18:11:23.692Z,99.28
2023-01-21T18:13:52.843Z,99.10
2023-01-21T18:16:23.051Z,99.20
2023-01-21T18:18:54.354Z,99.33
2023-01-21T18:21:26.539Z,99.31
2023-01-21T18:23:56.269Z,99.34
2023-01-21T18:26:31.280Z,99.35
2023-01-21T18:29:00.340Z,99.34
2023-01-21T18:31:29.260Z,99.35
2023-01-21T18:33:58.053Z,99.34
2023-01-21T18:36:27.909Z,99.43
2023-01-21T18:38:57.593Z,99.45
2023-01-21T18:41:27.304Z,99.41
2023-01-21T18:43:56.844Z,99.40
2023-01-21T18:46:26.424Z,99.39
2023-01-21T18:48:56.085Z,99.39
2023-01-21T18:51:28.816Z,99.33
2023-01-21T18:53:59.241Z,99.36
2023-01-21T18:56:29.668Z,99.42
2023-01-21T18:58:59.870Z,99.38
2023-01-21T19:01:30.024Z,99.38
2023-01-21T19:03:59.762Z,99.37
2023-01-21T19:06:29.581Z,99.33
2023-01-21T19:08:58.971Z,99.35
2023-01-21T19:11:27.802Z,99.27
2023-01-21T19:13:57.313Z,99.28
2023-01-21T19:16:29.360Z,99.34
2023-01-21T19:18:59.017Z,99.32
2023-01-21T19:21:30.277Z,99.28
2023-01-21T19:24:00.048Z,99.15
2023-01-21T19:26:30.078Z,99.15
2023-01-21T19:28:59.175Z,99.07
2023-01-21T19:31:28.747Z,99.04
2023-01-21T19:33:58.472Z,99.02
2023-01-21T19:36:27.991Z,99.00
2023-01-21T19:38:59.077Z,99.08
2023-01-21T19:41:29.079Z,99.04
2023-01-21T19:43:58.788Z,99.07
2023-01-21T19:46:29.834Z,99.04
2023-01-21T19:52:02.239Z,99.05
2023-01-21T19:54:32.989Z,98.99
2023-01-21T19:57:02.995Z,98.98
2023-01-21T19:59:34.560Z,98.93
2023-01-21T20:02:06.016Z,98.95
2023-01-21T20:04:35.701Z,98.88
2023-01-21T20:07:04.520Z,98.95
2023-01-21T20:09:33.902Z,98.98
2023-01-21T20:12:05.994Z,98.96
2023-01-21T20:14:37.309Z,99.09
2023-01-21T20:17:06.182Z,99.23
2023-01-21T20:19:36.939Z,99.24
2023-01-21T20:22:08.517Z,99.22
2023-01-21T20:24:41.052Z,99.28
2023-01-21T20:27:11.178Z,99.25
2023-01-21T20:29:49.653Z,99.25
2023-01-21T20:32:13.864Z,99.29
2023-01-21T20:34:43.667Z,99.25
2023-01-21T20:37:15.297Z,99.28
2023-01-21T20:39:44.991Z,99.24
2023-01-21T20:42:15.194Z,99.35
2023-01-21T20:44:44.501Z,99.43
2023-01-21T20:47:13.530Z,99.45
2023-01-21T20:49:43.544Z,99.44
2023-01-21T20:52:13.655Z,99.32
2023-01-21T20:54:43.435Z,99.24
2023-01-21T20:57:16.011Z,99.27
2023-01-21T20:59:46.258Z,99.28
2023-01-21T21:02:15.235Z,99.23
2023-01-21T21:04:47.840Z,99.34
2023-01-21T21:07:16.589Z,99.29
2023-01-21T21:09:46.719Z,99.30
2023-01-21T21:12:17.578Z,99.47
2023-01-21T21:14:47.254Z,99.57
2023-01-21T21:17:16.775Z,99.49
2023-01-21T21:19:47.522Z,99.52
2023-01-21T21:22:16.764Z,99.62
2023-01-21T21:24:46.837Z,99.65
2023-01-21T21:27:16.913Z,99.68
2023-01-21T21:29:47.438Z,99.63
2023-01-21T21:32:19.448Z,99.62
2023-01-21T21:34:50.451Z,99.61
2023-01-21T21:37:21.571Z,99.60
2023-01-21T21:39:50.940Z,99.71
2023-01-21T21:42:39.105Z,99.72
2023-01-21T21:45:09.365Z,99.79
2023-01-21T21:47:56.547Z,99.79
2023-01-21T21:50:26.152Z,99.70
2023-01-21T21:52:55.427Z,99.64
2023-01-21T21:55:26.604Z,99.72
2023-01-21T21:57:56.581Z,99.73
2023-01-21T22:00:27.202Z,99.75
2023-01-21T22:02:59.777Z,99.81
2023-01-21T22:05:30.472Z,99.83
2023-01-21T22:08:00.577Z,99.78
2023-01-21T22:10:30.041Z,99.79
2023-01-21T22:12:59.476Z,99.78
2023-01-21T22:15:28.538Z,99.84
2023-01-21T22:17:57.986Z,99.82
2023-01-21T22:20:27.098Z,99.88
2023-01-21T22:22:55.742Z,99.94
2023-01-21T22:25:25.352Z,99.86
2023-01-21T22:27:54.251Z,99.75
2023-01-21T22:30:24.876Z,99.81
2023-01-21T22:32:53.730Z,99.82
2023-01-21T22:35:22.542Z,99.84
2023-01-21T22:37:52.125Z,99.86
2023-01-21T22:40:20.867Z,99.92
2023-01-21T22:42:50.180Z,99.86
2023-01-21T22:45:21.674Z,99.96
2023-01-21T22:47:49.969Z,99.98
2023-01-21T22:50:19.663Z,99.99
2023-01-21T22:52:49.625Z,100.00
2023-01-21T22:55:19.077Z,99.92
2023-01-21T22:57:48.534Z,100.00
2023-01-21T23:00:22.033Z,100.00
2023-01-21T23:02:51.915Z,100.00
2023-01-21T23:05:22.185Z,100.00
2023-01-21T23:07:51.304Z,100.00
2023-01-21T23:10:20.589Z,100.00
2023-01-21T23:12:50.216Z,100.00
2023-01-21T23:15:20.543Z,100.00
2023-01-21T23:17:49.501Z,100.00
2023-01-21T23:20:20.461Z,100.00
2023-01-21T23:22:49.641Z,100.00
2023-01-21T23:25:18.563Z,100.00
2023-01-21T23:27:47.583Z,100.00
2023-01-21T23:30:17.948Z,100.00
2023-01-21T23:32:48.518Z,100.00
2023-01-21T23:35:19.004Z,100.00
2023-01-21T23:37:49.752Z,100.00
2023-01-21T23:40:18.763Z,100.00
2023-01-21T23:42:48.794Z,100.00
2023-01-21T23:45:17.864Z,100.00
2023-01-21T23:47:47.312Z,100.00
2023-01-21T23:50:17.374Z,100.00
2023-01-21T23:52:47.250Z,100.00
2023-01-21T23:55:16.478Z,100.00
2023-01-21T23:57:46.763Z,100.00
